Главная страница
METAR-TAF:

METAR-TAF

Аэропорты :

Векшё, Швеция

широта: 56-51N, долгота: 014-50E, высота над уровнем моря: 199 м

Текущие метеонаблюдения

Эта сводка был подготовлена 28 минут назад, в 11:20 UTC
Ветер 12 Узел от южный
Температура 19°C
Влажность 73%
Давление 999 hPa
Видимость 10 км и более

METAR: ESMX 241120Z AUTO 19012KT 9999 BKN086/// BKN190/// 19/14 Q0999

Время: 13:48 (11:48 UTC)

Прогноз

Эта сводка был подготовлена 18 минут назад, в 11:30 UTC
Прогноз действительный с 23-го 12 UTC до 23-го 14 UTC
Ветер 10 Узел от южный-юго-западный
Видимость 10 км и более
Нет облачности ниже 1500 м, и нет кучево-дождевой облачности

TAF: ESMX 231130Z 2312/2314 20010KT CAVOK

Метеонаблюдения и прогнозы для более 4000 аэропортов (сводки METAR и TAF).

Имеющиеся станции представлены на карте желтыми и красными точками.

Чтобы увидеть название станции, наведите на нее мышь.

Затем щелкните, чтобы увидеть метеонаблюдения и метеопрогнозы.

Управление картой: чтобы увеличить масштаб, щелкните зеленые кнопки с черным крестиком; чтобы уменьшить масштаб, щелкните зеленую кнопку с тире; для просмотра соседних карт щелкайте зеленые стрелки.


METAR-TAF: